sensor_id;sensor_type;location;lat;lon;timestamp;P1;durP1;ratioP1;P2;durP2;ratioP2
26620;SDS011;14253;44.840;10.444;2023-06-26T00:02:23;8.65;;;6.00;;
26620;SDS011;14253;44.840;10.444;2023-06-26T00:04:49;6.32;;;5.32;;
26620;SDS011;14253;44.840;10.444;2023-06-26T00:07:19;8.68;;;5.40;;
26620;SDS011;14253;44.840;10.444;2023-06-26T00:09:45;11.98;;;5.93;;
26620;SDS011;14253;44.840;10.444;2023-06-26T00:12:11;7.35;;;5.50;;
26620;SDS011;14253;44.840;10.444;2023-06-26T00:14:37;11.75;;;6.28;;
26620;SDS011;14253;44.840;10.444;2023-06-26T00:17:03;6.88;;;5.63;;
26620;SDS011;14253;44.840;10.444;2023-06-26T00:19:29;7.38;;;5.53;;
26620;SDS011;14253;44.840;10.444;2023-06-26T00:21:55;8.70;;;6.22;;
26620;SDS011;14253;44.840;10.444;2023-06-26T00:24:21;6.60;;;5.70;;
26620;SDS011;14253;44.840;10.444;2023-06-26T00:26:47;8.38;;;5.55;;
26620;SDS011;14253;44.840;10.444;2023-06-26T00:29:13;9.45;;;6.30;;
26620;SDS011;14253;44.840;10.444;2023-06-26T00:31:39;7.72;;;5.03;;
26620;SDS011;14253;44.840;10.444;2023-06-26T00:34:05;7.50;;;5.15;;
26620;SDS011;14253;44.840;10.444;2023-06-26T00:36:31;8.15;;;5.32;;
26620;SDS011;14253;44.840;10.444;2023-06-26T00:38:58;7.97;;;5.40;;
26620;SDS011;14253;44.840;10.444;2023-06-26T00:41:26;7.07;;;5.07;;
26620;SDS011;14253;44.840;10.444;2023-06-26T00:43:52;8.63;;;5.95;;
26620;SDS011;14253;44.840;10.444;2023-06-26T00:46:18;8.23;;;5.40;;
26620;SDS011;14253;44.840;10.444;2023-06-26T00:48:44;6.22;;;4.85;;
26620;SDS011;14253;44.840;10.444;2023-06-26T00:51:12;7.53;;;5.78;;
26620;SDS011;14253;44.840;10.444;2023-06-26T00:53:38;5.57;;;4.70;;
26620;SDS011;14253;44.840;10.444;2023-06-26T00:56:05;10.95;;;6.15;;
26620;SDS011;14253;44.840;10.444;2023-06-26T00:58:32;7.50;;;5.97;;
26620;SDS011;14253;44.840;10.444;2023-06-26T01:00:58;13.98;;;6.63;;
26620;SDS011;14253;44.840;10.444;2023-06-26T01:03:26;7.95;;;5.53;;
26620;SDS011;14253;44.840;10.444;2023-06-26T01:05:55;7.25;;;6.05;;
26620;SDS011;14253;44.840;10.444;2023-06-26T01:08:24;7.45;;;5.70;;
26620;SDS011;14253;44.840;10.444;2023-06-26T01:10:50;9.35;;;5.50;;
26620;SDS011;14253;44.840;10.444;2023-06-26T01:13:17;7.22;;;5.95;;
26620;SDS011;14253;44.840;10.444;2023-06-26T01:15:43;8.70;;;6.30;;
26620;SDS011;14253;44.840;10.444;2023-06-26T01:18:11;9.60;;;6.20;;
26620;SDS011;14253;44.840;10.444;2023-06-26T01:20:40;7.75;;;6.40;;
26620;SDS011;14253;44.840;10.444;2023-06-26T01:26:19;9.98;;;5.78;;
26620;SDS011;14253;44.840;10.444;2023-06-26T01:28:47;8.38;;;6.45;;
26620;SDS011;14253;44.840;10.444;2023-06-26T01:31:15;7.57;;;6.10;;
26620;SDS011;14253;44.840;10.444;2023-06-26T01:33:41;9.52;;;6.63;;
26620;SDS011;14253;44.840;10.444;2023-06-26T01:36:08;11.23;;;6.45;;
26620;SDS011;14253;44.840;10.444;2023-06-26T01:38:34;10.77;;;6.68;;
26620;SDS011;14253;44.840;10.444;2023-06-26T01:41:01;8.77;;;5.82;;
26620;SDS011;14253;44.840;10.444;2023-06-26T01:43:29;9.55;;;5.88;;
26620;SDS011;14253;44.840;10.444;2023-06-26T01:46:14;7.20;;;6.15;;
26620;SDS011;14253;44.840;10.444;2023-06-26T01:51:39;7.53;;;5.68;;
26620;SDS011;14253;44.840;10.444;2023-06-26T01:54:08;7.43;;;4.97;;
26620;SDS011;14253;44.840;10.444;2023-06-26T01:56:40;8.05;;;5.88;;
26620;SDS011;14253;44.840;10.444;2023-06-26T01:59:08;6.55;;;5.60;;
26620;SDS011;14253;44.840;10.444;2023-06-26T02:01:35;6.68;;;5.53;;
26620;SDS011;14253;44.840;10.444;2023-06-26T02:04:01;6.35;;;5.43;;
26620;SDS011;14253;44.840;10.444;2023-06-26T02:06:29;5.90;;;5.10;;
26620;SDS011;14253;44.840;10.444;2023-06-26T02:08:58;7.20;;;5.00;;
26620;SDS011;14253;44.840;10.444;2023-06-26T02:11:24;7.55;;;5.60;;
26620;SDS011;14253;44.840;10.444;2023-06-26T02:13:51;7.25;;;5.55;;
26620;SDS011;14253;44.840;10.444;2023-06-26T02:16:17;8.30;;;5.40;;
26620;SDS011;14253;44.840;10.444;2023-06-26T02:18:43;5.95;;;5.13;;
26620;SDS011;14253;44.840;10.444;2023-06-26T02:21:09;5.43;;;4.82;;
26620;SDS011;14253;44.840;10.444;2023-06-26T02:23:35;9.43;;;6.57;;
26620;SDS011;14253;44.840;10.444;2023-06-26T02:26:01;5.57;;;5.05;;
26620;SDS011;14253;44.840;10.444;2023-06-26T02:28:26;7.85;;;5.10;;
26620;SDS011;14253;44.840;10.444;2023-06-26T02:30:52;9.13;;;5.43;;
26620;SDS011;14253;44.840;10.444;2023-06-26T02:33:18;5.60;;;4.60;;
26620;SDS011;14253;44.840;10.444;2023-06-26T02:35:47;6.28;;;4.75;;
26620;SDS011;14253;44.840;10.444;2023-06-26T02:38:15;6.10;;;4.85;;
26620;SDS011;14253;44.840;10.444;2023-06-26T02:40:41;6.80;;;5.50;;
26620;SDS011;14253;44.840;10.444;2023-06-26T02:43:07;7.97;;;5.75;;
26620;SDS011;14253;44.840;10.444;2023-06-26T02:45:33;6.18;;;5.45;;
26620;SDS011;14253;44.840;10.444;2023-06-26T02:47:59;6.25;;;5.00;;
26620;SDS011;14253;44.840;10.444;2023-06-26T02:50:26;10.63;;;5.85;;
26620;SDS011;14253;44.840;10.444;2023-06-26T02:53:07;8.18;;;5.30;;
26620;SDS011;14253;44.840;10.444;2023-06-26T02:55:37;6.80;;;5.47;;
26620;SDS011;14253;44.840;10.444;2023-06-26T02:58:02;5.97;;;5.40;;
26620;SDS011;14253;44.840;10.444;2023-06-26T03:00:29;7.10;;;5.30;;
26620;SDS011;14253;44.840;10.444;2023-06-26T03:02:56;7.90;;;6.38;;
26620;SDS011;14253;44.840;10.444;2023-06-26T03:05:22;11.75;;;6.30;;
26620;SDS011;14253;44.840;10.444;2023-06-26T03:07:49;9.02;;;6.55;;
26620;SDS011;14253;44.840;10.444;2023-06-26T03:10:15;6.90;;;6.15;;
26620;SDS011;14253;44.840;10.444;2023-06-26T03:12:42;8.30;;;6.10;;
26620;SDS011;14253;44.840;10.444;2023-06-26T03:15:10;10.23;;;6.20;;
26620;SDS011;14253;44.840;10.444;2023-06-26T03:17:37;9.68;;;6.55;;
26620;SDS011;14253;44.840;10.444;2023-06-26T03:20:07;7.75;;;6.07;;
26620;SDS011;14253;44.840;10.444;2023-06-26T03:22:46;12.10;;;7.10;;
26620;SDS011;14253;44.840;10.444;2023-06-26T03:25:14;8.57;;;5.78;;
26620;SDS011;14253;44.840;10.444;2023-06-26T03:27:40;6.50;;;5.90;;
26620;SDS011;14253;44.840;10.444;2023-06-26T03:30:07;9.85;;;5.65;;
26620;SDS011;14253;44.840;10.444;2023-06-26T03:32:36;8.43;;;6.85;;
26620;SDS011;14253;44.840;10.444;2023-06-26T03:35:02;9.73;;;5.65;;
26620;SDS011;14253;44.840;10.444;2023-06-26T03:37:29;10.25;;;6.22;;
26620;SDS011;14253;44.840;10.444;2023-06-26T03:39:55;6.43;;;5.35;;
26620;SDS011;14253;44.840;10.444;2023-06-26T03:42:21;7.70;;;6.30;;
26620;SDS011;14253;44.840;10.444;2023-06-26T03:44:47;9.18;;;6.25;;
26620;SDS011;14253;44.840;10.444;2023-06-26T03:47:16;8.63;;;5.82;;
26620;SDS011;14253;44.840;10.444;2023-06-26T03:49:42;9.85;;;6.97;;
26620;SDS011;14253;44.840;10.444;2023-06-26T03:52:08;10.43;;;6.10;;
26620;SDS011;14253;44.840;10.444;2023-06-26T03:54:34;12.15;;;6.30;;
26620;SDS011;14253;44.840;10.444;2023-06-26T03:57:00;7.45;;;5.13;;
26620;SDS011;14253;44.840;10.444;2023-06-26T03:59:26;8.48;;;5.95;;
26620;SDS011;14253;44.840;10.444;2023-06-26T04:01:52;10.55;;;6.88;;
26620;SDS011;14253;44.840;10.444;2023-06-26T04:04:19;12.35;;;7.25;;
26620;SDS011;14253;44.840;10.444;2023-06-26T04:06:45;12.48;;;7.57;;
26620;SDS011;14253;44.840;10.444;2023-06-26T04:09:11;12.88;;;7.78;;
26620;SDS011;14253;44.840;10.444;2023-06-26T04:11:37;16.83;;;9.55;;
26620;SDS011;14253;44.840;10.444;2023-06-26T04:14:03;10.75;;;8.50;;
26620;SDS011;14253;44.840;10.444;2023-06-26T04:16:29;14.50;;;11.20;;
26620;SDS011;14253;44.840;10.444;2023-06-26T04:18:55;20.63;;;11.85;;
26620;SDS011;14253;44.840;10.444;2023-06-26T04:21:21;22.85;;;12.02;;
26620;SDS011;14253;44.840;10.444;2023-06-26T04:23:51;26.15;;;11.75;;
26620;SDS011;14253;44.840;10.444;2023-06-26T04:26:17;23.38;;;10.90;;
26620;SDS011;14253;44.840;10.444;2023-06-26T04:28:43;14.90;;;10.35;;
26620;SDS011;14253;44.840;10.444;2023-06-26T04:31:09;19.80;;;11.52;;
26620;SDS011;14253;44.840;10.444;2023-06-26T04:33:36;20.98;;;12.27;;
26620;SDS011;14253;44.840;10.444;2023-06-26T04:36:03;29.92;;;12.98;;
26620;SDS011;14253;44.840;10.444;2023-06-26T04:38:30;48.28;;;15.02;;
26620;SDS011;14253;44.840;10.444;2023-06-26T04:40:59;48.05;;;15.10;;
26620;SDS011;14253;44.840;10.444;2023-06-26T04:43:26;22.70;;;13.07;;
26620;SDS011;14253;44.840;10.444;2023-06-26T04:45:52;18.63;;;14.23;;
26620;SDS011;14253;44.840;10.444;2023-06-26T04:48:18;32.15;;;12.88;;
26620;SDS011;14253;44.840;10.444;2023-06-26T04:50:44;22.50;;;13.85;;
26620;SDS011;14253;44.840;10.444;2023-06-26T04:53:17;34.67;;;13.73;;
26620;SDS011;14253;44.840;10.444;2023-06-26T04:55:43;26.23;;;13.68;;
26620;SDS011;14253;44.840;10.444;2023-06-26T04:58:09;14.65;;;11.75;;
26620;SDS011;14253;44.840;10.444;2023-06-26T05:00:35;27.42;;;11.73;;
26620;SDS011;14253;44.840;10.444;2023-06-26T05:03:01;14.50;;;11.13;;
26620;SDS011;14253;44.840;10.444;2023-06-26T05:05:27;16.30;;;11.13;;
26620;SDS011;14253;44.840;10.444;2023-06-26T05:07:54;14.45;;;11.57;;
26620;SDS011;14253;44.840;10.444;2023-06-26T05:10:21;20.85;;;11.48;;
26620;SDS011;14253;44.840;10.444;2023-06-26T05:12:47;15.10;;;10.23;;
26620;SDS011;14253;44.840;10.444;2023-06-26T05:15:13;13.38;;;9.60;;
26620;SDS011;14253;44.840;10.444;2023-06-26T05:17:39;15.40;;;10.02;;
26620;SDS011;14253;44.840;10.444;2023-06-26T05:20:05;11.82;;;9.25;;
26620;SDS011;14253;44.840;10.444;2023-06-26T05:22:32;12.07;;;8.10;;
26620;SDS011;14253;44.840;10.444;2023-06-26T05:25:00;15.77;;;7.80;;
26620;SDS011;14253;44.840;10.444;2023-06-26T05:27:27;9.32;;;7.43;;
26620;SDS011;14253;44.840;10.444;2023-06-26T05:29:53;17.65;;;8.95;;
26620;SDS011;14253;44.840;10.444;2023-06-26T05:32:19;16.88;;;8.77;;
26620;SDS011;14253;44.840;10.444;2023-06-26T05:34:46;11.85;;;8.02;;
26620;SDS011;14253;44.840;10.444;2023-06-26T05:37:20;10.53;;;7.70;;
26620;SDS011;14253;44.840;10.444;2023-06-26T05:39:46;9.82;;;7.00;;
26620;SDS011;14253;44.840;10.444;2023-06-26T05:42:13;10.95;;;7.88;;
26620;SDS011;14253;44.840;10.444;2023-06-26T05:44:40;11.02;;;7.03;;
26620;SDS011;14253;44.840;10.444;2023-06-26T05:47:06;10.10;;;6.30;;
26620;SDS011;14253;44.840;10.444;2023-06-26T05:49:32;11.27;;;7.05;;
26620;SDS011;14253;44.840;10.444;2023-06-26T05:51:59;14.10;;;8.52;;
26620;SDS011;14253;44.840;10.444;2023-06-26T05:54:25;8.57;;;7.07;;
26620;SDS011;14253;44.840;10.444;2023-06-26T05:56:52;10.45;;;7.32;;
26620;SDS011;14253;44.840;10.444;2023-06-26T05:59:24;8.57;;;7.05;;
26620;SDS011;14253;44.840;10.444;2023-06-26T06:01:52;8.70;;;7.28;;
26620;SDS011;14253;44.840;10.444;2023-06-26T06:04:18;11.55;;;7.75;;
26620;SDS011;14253;44.840;10.444;2023-06-26T06:06:44;10.38;;;7.90;;
26620;SDS011;14253;44.840;10.444;2023-06-26T06:09:10;12.68;;;9.05;;
26620;SDS011;14253;44.840;10.444;2023-06-26T06:11:35;10.30;;;8.88;;
26620;SDS011;14253;44.840;10.444;2023-06-26T06:14:02;11.75;;;9.10;;
26620;SDS011;14253;44.840;10.444;2023-06-26T06:16:28;9.68;;;8.40;;
26620;SDS011;14253;44.840;10.444;2023-06-26T06:18:54;11.88;;;9.02;;
26620;SDS011;14253;44.840;10.444;2023-06-26T06:21:20;12.18;;;9.30;;
26620;SDS011;14253;44.840;10.444;2023-06-26T06:23:46;14.48;;;9.77;;
26620;SDS011;14253;44.840;10.444;2023-06-26T06:26:12;15.05;;;10.02;;
26620;SDS011;14253;44.840;10.444;2023-06-26T06:28:39;17.80;;;9.60;;
26620;SDS011;14253;44.840;10.444;2023-06-26T06:31:05;14.73;;;8.93;;
26620;SDS011;14253;44.840;10.444;2023-06-26T06:33:31;11.80;;;8.80;;
26620;SDS011;14253;44.840;10.444;2023-06-26T06:35:57;11.85;;;8.60;;
26620;SDS011;14253;44.840;10.444;2023-06-26T06:38:23;10.52;;;8.38;;
26620;SDS011;14253;44.840;10.444;2023-06-26T06:40:49;9.43;;;8.43;;
26620;SDS011;14253;44.840;10.444;2023-06-26T06:43:16;10.93;;;8.27;;
26620;SDS011;14253;44.840;10.444;2023-06-26T06:45:42;11.10;;;7.95;;
26620;SDS011;14253;44.840;10.444;2023-06-26T06:48:08;10.48;;;9.05;;
26620;SDS011;14253;44.840;10.444;2023-06-26T06:50:34;11.48;;;8.88;;
26620;SDS011;14253;44.840;10.444;2023-06-26T06:53:00;11.73;;;8.32;;
26620;SDS011;14253;44.840;10.444;2023-06-26T06:55:31;14.75;;;8.27;;
26620;SDS011;14253;44.840;10.444;2023-06-26T06:58:13;11.32;;;8.35;;
26620;SDS011;14253;44.840;10.444;2023-06-26T07:00:46;10.30;;;8.95;;
26620;SDS011;14253;44.840;10.444;2023-06-26T07:03:12;11.93;;;9.05;;
26620;SDS011;14253;44.840;10.444;2023-06-26T07:05:46;15.05;;;8.77;;
26620;SDS011;14253;44.840;10.444;2023-06-26T07:08:25;13.45;;;7.63;;
26620;SDS011;14253;44.840;10.444;2023-06-26T07:11:04;13.30;;;7.60;;
26620;SDS011;14253;44.840;10.444;2023-06-26T07:13:41;15.45;;;7.63;;
26620;SDS011;14253;44.840;10.444;2023-06-26T07:16:07;7.90;;;7.10;;
26620;SDS011;14253;44.840;10.444;2023-06-26T07:18:41;9.57;;;8.13;;
26620;SDS011;14253;44.840;10.444;2023-06-26T07:21:18;13.48;;;7.85;;
26620;SDS011;14253;44.840;10.444;2023-06-26T07:23:54;12.48;;;7.72;;
26620;SDS011;14253;44.840;10.444;2023-06-26T07:26:26;12.43;;;8.18;;
26620;SDS011;14253;44.840;10.444;2023-06-26T07:29:07;13.30;;;7.95;;
26620;SDS011;14253;44.840;10.444;2023-06-26T07:31:46;13.10;;;7.78;;
26620;SDS011;14253;44.840;10.444;2023-06-26T07:34:25;12.80;;;8.10;;
26620;SDS011;14253;44.840;10.444;2023-06-26T07:37:00;13.13;;;8.45;;
26620;SDS011;14253;44.840;10.444;2023-06-26T07:39:31;15.35;;;8.18;;
26620;SDS011;14253;44.840;10.444;2023-06-26T07:42:16;13.50;;;7.90;;
26620;SDS011;14253;44.840;10.444;2023-06-26T07:44:47;15.55;;;8.20;;
26620;SDS011;14253;44.840;10.444;2023-06-26T07:47:16;9.60;;;6.50;;
26620;SDS011;14253;44.840;10.444;2023-06-26T07:49:51;9.77;;;6.97;;
26620;SDS011;14253;44.840;10.444;2023-06-26T07:52:19;13.27;;;7.65;;
26620;SDS011;14253;44.840;10.444;2023-06-26T07:54:47;12.37;;;6.97;;
26620;SDS011;14253;44.840;10.444;2023-06-26T07:57:13;5.43;;;4.68;;
26620;SDS011;14253;44.840;10.444;2023-06-26T07:59:39;7.95;;;5.00;;
26620;SDS011;14253;44.840;10.444;2023-06-26T08:02:05;6.47;;;4.60;;
26620;SDS011;14253;44.840;10.444;2023-06-26T08:04:32;6.28;;;5.00;;
26620;SDS011;14253;44.840;10.444;2023-06-26T08:06:59;11.05;;;5.05;;
26620;SDS011;14253;44.840;10.444;2023-06-26T08:09:26;6.47;;;5.18;;
26620;SDS011;14253;44.840;10.444;2023-06-26T08:11:53;6.65;;;5.90;;
26620;SDS011;14253;44.840;10.444;2023-06-26T08:14:19;7.07;;;5.53;;
26620;SDS011;14253;44.840;10.444;2023-06-26T08:16:45;6.65;;;5.35;;
26620;SDS011;14253;44.840;10.444;2023-06-26T08:19:12;12.25;;;5.97;;
26620;SDS011;14253;44.840;10.444;2023-06-26T08:21:39;7.20;;;4.70;;
26620;SDS011;14253;44.840;10.444;2023-06-26T08:24:05;7.15;;;4.90;;
26620;SDS011;14253;44.840;10.444;2023-06-26T08:26:32;6.28;;;4.57;;
26620;SDS011;14253;44.840;10.444;2023-06-26T08:28:57;7.38;;;4.00;;
26620;SDS011;14253;44.840;10.444;2023-06-26T08:31:23;8.23;;;4.47;;
26620;SDS011;14253;44.840;10.444;2023-06-26T08:33:49;9.30;;;4.75;;
26620;SDS011;14253;44.840;10.444;2023-06-26T08:36:15;9.75;;;4.22;;
26620;SDS011;14253;44.840;10.444;2023-06-26T08:38:41;5.88;;;3.97;;
26620;SDS011;14253;44.840;10.444;2023-06-26T08:41:08;5.85;;;3.80;;
26620;SDS011;14253;44.840;10.444;2023-06-26T08:43:34;6.78;;;4.60;;
26620;SDS011;14253;44.840;10.444;2023-06-26T08:46:01;5.72;;;3.70;;
26620;SDS011;14253;44.840;10.444;2023-06-26T08:48:29;7.30;;;4.45;;
26620;SDS011;14253;44.840;10.444;2023-06-26T08:50:57;5.78;;;4.10;;
26620;SDS011;14253;44.840;10.444;2023-06-26T08:55:59;8.57;;;5.00;;
26620;SDS011;14253;44.840;10.444;2023-06-26T08:58:25;7.78;;;4.50;;
26620;SDS011;14253;44.840;10.444;2023-06-26T09:00:52;9.40;;;5.03;;
26620;SDS011;14253;44.840;10.444;2023-06-26T09:03:18;6.90;;;4.53;;
26620;SDS011;14253;44.840;10.444;2023-06-26T09:05:45;8.27;;;4.30;;
26620;SDS011;14253;44.840;10.444;2023-06-26T09:08:10;7.43;;;4.55;;
26620;SDS011;14253;44.840;10.444;2023-06-26T09:10:38;7.18;;;4.00;;
26620;SDS011;14253;44.840;10.444;2023-06-26T09:13:04;12.77;;;4.03;;
26620;SDS011;14253;44.840;10.444;2023-06-26T09:15:37;6.78;;;3.83;;
26620;SDS011;14253;44.840;10.444;2023-06-26T09:18:07;6.20;;;4.68;;
26620;SDS011;14253;44.840;10.444;2023-06-26T09:20:33;6.57;;;4.25;;
26620;SDS011;14253;44.840;10.444;2023-06-26T09:23:00;6.80;;;4.43;;
26620;SDS011;14253;44.840;10.444;2023-06-26T09:25:27;8.45;;;4.63;;
26620;SDS011;14253;44.840;10.444;2023-06-26T09:27:56;8.73;;;5.25;;
26620;SDS011;14253;44.840;10.444;2023-06-26T09:30:27;10.65;;;5.07;;
26620;SDS011;14253;44.840;10.444;2023-06-26T09:32:53;8.48;;;5.30;;
26620;SDS011;14253;44.840;10.444;2023-06-26T09:35:19;7.95;;;4.13;;
26620;SDS011;14253;44.840;10.444;2023-06-26T09:37:45;7.18;;;5.15;;
26620;SDS011;14253;44.840;10.444;2023-06-26T09:40:13;6.38;;;4.78;;
26620;SDS011;14253;44.840;10.444;2023-06-26T09:42:39;5.80;;;3.42;;
26620;SDS011;14253;44.840;10.444;2023-06-26T09:45:06;4.65;;;3.85;;
26620;SDS011;14253;44.840;10.444;2023-06-26T09:47:33;8.57;;;4.75;;
26620;SDS011;14253;44.840;10.444;2023-06-26T09:50:02;5.07;;;3.80;;
26620;SDS011;14253;44.840;10.444;2023-06-26T09:52:31;6.32;;;4.05;;
26620;SDS011;14253;44.840;10.444;2023-06-26T09:55:09;7.53;;;4.10;;
26620;SDS011;14253;44.840;10.444;2023-06-26T09:57:37;6.03;;;4.00;;
26620;SDS011;14253;44.840;10.444;2023-06-26T10:00:06;10.23;;;4.00;;
26620;SDS011;14253;44.840;10.444;2023-06-26T10:02:37;4.75;;;3.70;;
26620;SDS011;14253;44.840;10.444;2023-06-26T10:05:04;5.22;;;3.53;;
26620;SDS011;14253;44.840;10.444;2023-06-26T10:07:30;5.15;;;4.00;;
26620;SDS011;14253;44.840;10.444;2023-06-26T10:09:57;5.45;;;3.97;;
26620;SDS011;14253;44.840;10.444;2023-06-26T10:12:33;6.18;;;4.15;;
26620;SDS011;14253;44.840;10.444;2023-06-26T10:15:02;9.23;;;5.32;;
26620;SDS011;14253;44.840;10.444;2023-06-26T10:17:34;5.55;;;3.17;;
26620;SDS011;14253;44.840;10.444;2023-06-26T10:20:04;6.88;;;2.85;;
26620;SDS011;14253;44.840;10.444;2023-06-26T10:22:41;3.67;;;3.20;;
26620;SDS011;14253;44.840;10.444;2023-06-26T10:25:16;3.70;;;3.22;;
26620;SDS011;14253;44.840;10.444;2023-06-26T10:27:47;6.05;;;3.50;;
26620;SDS011;14253;44.840;10.444;2023-06-26T10:30:20;4.85;;;3.40;;
26620;SDS011;14253;44.840;10.444;2023-06-26T10:32:52;8.18;;;3.60;;
26620;SDS011;14253;44.840;10.444;2023-06-26T10:35:19;7.53;;;3.85;;
26620;SDS011;14253;44.840;10.444;2023-06-26T10:37:47;4.28;;;3.50;;
26620;SDS011;14253;44.840;10.444;2023-06-26T10:40:17;4.68;;;3.50;;
26620;SDS011;14253;44.840;10.444;2023-06-26T10:42:47;5.88;;;3.30;;
26620;SDS011;14253;44.840;10.444;2023-06-26T10:45:16;5.50;;;3.50;;
26620;SDS011;14253;44.840;10.444;2023-06-26T10:47:48;5.40;;;3.35;;
26620;SDS011;14253;44.840;10.444;2023-06-26T10:50:24;5.38;;;3.42;;
26620;SDS011;14253;44.840;10.444;2023-06-26T10:53:10;4.43;;;3.40;;
26620;SDS011;14253;44.840;10.444;2023-06-26T10:55:54;3.97;;;3.25;;
26620;SDS011;14253;44.840;10.444;2023-06-26T10:58:31;5.78;;;3.17;;
26620;SDS011;14253;44.840;10.444;2023-06-26T11:01:13;5.63;;;3.20;;
26620;SDS011;14253;44.840;10.444;2023-06-26T11:03:45;4.05;;;3.50;;
26620;SDS011;14253;44.840;10.444;2023-06-26T11:06:18;4.95;;;3.50;;
26620;SDS011;14253;44.840;10.444;2023-06-26T11:08:47;4.75;;;3.63;;
26620;SDS011;14253;44.840;10.444;2023-06-26T11:11:15;6.55;;;3.35;;
26620;SDS011;14253;44.840;10.444;2023-06-26T11:13:41;5.40;;;3.78;;
26620;SDS011;14253;44.840;10.444;2023-06-26T11:16:11;5.22;;;3.38;;
26620;SDS011;14253;44.840;10.444;2023-06-26T11:18:38;6.60;;;3.47;;
26620;SDS011;14253;44.840;10.444;2023-06-26T11:21:05;5.78;;;3.15;;
26620;SDS011;14253;44.840;10.444;2023-06-26T11:23:32;6.20;;;3.30;;
26620;SDS011;14253;44.840;10.444;2023-06-26T11:26:19;4.38;;;3.05;;
26620;SDS011;14253;44.840;10.444;2023-06-26T11:31:26;3.10;;;2.80;;
26620;SDS011;14253;44.840;10.444;2023-06-26T11:33:57;5.93;;;3.67;;
26620;SDS011;14253;44.840;10.444;2023-06-26T11:36:28;6.03;;;3.53;;
26620;SDS011;14253;44.840;10.444;2023-06-26T11:38:58;6.75;;;3.13;;
26620;SDS011;14253;44.840;10.444;2023-06-26T11:41:26;4.65;;;3.08;;
26620;SDS011;14253;44.840;10.444;2023-06-26T11:43:53;5.45;;;3.55;;
26620;SDS011;14253;44.840;10.444;2023-06-26T11:46:21;6.15;;;3.28;;
26620;SDS011;14253;44.840;10.444;2023-06-26T11:48:47;5.40;;;3.47;;
26620;SDS011;14253;44.840;10.444;2023-06-26T11:51:14;4.15;;;3.20;;
26620;SDS011;14253;44.840;10.444;2023-06-26T11:53:44;5.88;;;3.95;;
26620;SDS011;14253;44.840;10.444;2023-06-26T11:56:11;3.72;;;3.03;;
26620;SDS011;14253;44.840;10.444;2023-06-26T11:58:57;7.20;;;3.42;;
26620;SDS011;14253;44.840;10.444;2023-06-26T12:01:38;5.57;;;3.40;;
26620;SDS011;14253;44.840;10.444;2023-06-26T12:04:06;4.00;;;3.13;;
26620;SDS011;14253;44.840;10.444;2023-06-26T12:06:34;4.93;;;3.30;;
26620;SDS011;14253;44.840;10.444;2023-06-26T12:09:02;6.63;;;3.38;;
26620;SDS011;14253;44.840;10.444;2023-06-26T12:11:31;4.07;;;3.13;;
26620;SDS011;14253;44.840;10.444;2023-06-26T12:13:59;3.22;;;2.70;;
26620;SDS011;14253;44.840;10.444;2023-06-26T12:16:27;4.72;;;3.33;;
26620;SDS011;14253;44.840;10.444;2023-06-26T12:19:00;5.78;;;3.20;;
26620;SDS011;14253;44.840;10.444;2023-06-26T12:24:03;4.53;;;3.45;;
26620;SDS011;14253;44.840;10.444;2023-06-26T12:26:30;4.28;;;3.17;;
26620;SDS011;14253;44.840;10.444;2023-06-26T12:31:58;4.40;;;3.58;;
26620;SDS011;14253;44.840;10.444;2023-06-26T12:34:26;5.85;;;3.30;;
26620;SDS011;14253;44.840;10.444;2023-06-26T12:37:11;6.07;;;3.13;;
26620;SDS011;14253;44.840;10.444;2023-06-26T12:40:15;3.78;;;2.72;;
26620;SDS011;14253;44.840;10.444;2023-06-26T12:42:41;11.02;;;3.65;;
26620;SDS011;14253;44.840;10.444;2023-06-26T12:45:11;5.35;;;3.53;;
26620;SDS011;14253;44.840;10.444;2023-06-26T12:47:38;5.82;;;3.42;;
26620;SDS011;14253;44.840;10.444;2023-06-26T12:50:06;5.75;;;3.20;;
26620;SDS011;14253;44.840;10.444;2023-06-26T12:52:33;5.70;;;3.75;;
26620;SDS011;14253;44.840;10.444;2023-06-26T12:54:59;5.90;;;3.30;;
26620;SDS011;14253;44.840;10.444;2023-06-26T12:57:25;5.30;;;3.58;;
26620;SDS011;14253;44.840;10.444;2023-06-26T12:59:51;4.15;;;3.40;;
26620;SDS011;14253;44.840;10.444;2023-06-26T13:02:17;4.13;;;2.97;;
26620;SDS011;14253;44.840;10.444;2023-06-26T13:04:44;4.95;;;3.20;;
26620;SDS011;14253;44.840;10.444;2023-06-26T13:07:10;6.18;;;3.40;;
26620;SDS011;14253;44.840;10.444;2023-06-26T13:09:36;5.72;;;4.10;;
26620;SDS011;14253;44.840;10.444;2023-06-26T13:12:04;7.72;;;3.65;;
26620;SDS011;14253;44.840;10.444;2023-06-26T13:14:31;3.88;;;3.13;;
26620;SDS011;14253;44.840;10.444;2023-06-26T13:16:58;5.13;;;3.17;;
26620;SDS011;14253;44.840;10.444;2023-06-26T13:19:26;5.25;;;3.47;;
26620;SDS011;14253;44.840;10.444;2023-06-26T13:21:52;5.32;;;3.10;;
26620;SDS011;14253;44.840;10.444;2023-06-26T13:24:18;7.35;;;3.53;;
26620;SDS011;14253;44.840;10.444;2023-06-26T13:26:45;4.18;;;3.40;;
26620;SDS011;14253;44.840;10.444;2023-06-26T13:29:11;4.60;;;3.40;;
26620;SDS011;14253;44.840;10.444;2023-06-26T13:31:37;3.22;;;2.85;;
26620;SDS011;14253;44.840;10.444;2023-06-26T13:34:03;3.63;;;3.15;;
26620;SDS011;14253;44.840;10.444;2023-06-26T13:36:30;4.10;;;2.92;;
26620;SDS011;14253;44.840;10.444;2023-06-26T13:38:59;3.92;;;3.38;;
26620;SDS011;14253;44.840;10.444;2023-06-26T13:41:30;4.15;;;3.10;;
26620;SDS011;14253;44.840;10.444;2023-06-26T13:43:56;4.07;;;3.25;;
26620;SDS011;14253;44.840;10.444;2023-06-26T13:46:22;3.33;;;2.80;;
26620;SDS011;14253;44.840;10.444;2023-06-26T13:48:48;5.35;;;3.42;;
26620;SDS011;14253;44.840;10.444;2023-06-26T13:51:17;6.13;;;3.40;;
26620;SDS011;14253;44.840;10.444;2023-06-26T13:53:43;5.72;;;3.05;;
26620;SDS011;14253;44.840;10.444;2023-06-26T13:56:09;5.72;;;3.10;;
26620;SDS011;14253;44.840;10.444;2023-06-26T13:58:35;6.20;;;3.20;;
26620;SDS011;14253;44.840;10.444;2023-06-26T14:01:02;4.05;;;3.65;;
26620;SDS011;14253;44.840;10.444;2023-06-26T14:03:29;6.18;;;3.65;;
26620;SDS011;14253;44.840;10.444;2023-06-26T14:05:55;5.20;;;3.22;;
26620;SDS011;14253;44.840;10.444;2023-06-26T14:08:22;3.92;;;3.17;;
26620;SDS011;14253;44.840;10.444;2023-06-26T14:10:48;5.30;;;3.20;;
26620;SDS011;14253;44.840;10.444;2023-06-26T14:13:14;4.88;;;3.38;;
26620;SDS011;14253;44.840;10.444;2023-06-26T14:15:41;4.05;;;3.30;;
26620;SDS011;14253;44.840;10.444;2023-06-26T14:18:07;3.90;;;3.10;;
26620;SDS011;14253;44.840;10.444;2023-06-26T14:20:33;3.92;;;3.38;;
26620;SDS011;14253;44.840;10.444;2023-06-26T14:23:01;3.50;;;3.15;;
26620;SDS011;14253;44.840;10.444;2023-06-26T14:25:27;4.53;;;3.20;;
26620;SDS011;14253;44.840;10.444;2023-06-26T14:27:56;5.72;;;2.90;;
26620;SDS011;14253;44.840;10.444;2023-06-26T14:30:23;4.57;;;3.72;;
26620;SDS011;14253;44.840;10.444;2023-06-26T14:32:49;5.22;;;3.03;;
26620;SDS011;14253;44.840;10.444;2023-06-26T14:35:15;4.15;;;3.00;;
26620;SDS011;14253;44.840;10.444;2023-06-26T14:37:41;5.13;;;2.72;;
26620;SDS011;14253;44.840;10.444;2023-06-26T14:40:09;3.60;;;3.10;;
26620;SDS011;14253;44.840;10.444;2023-06-26T14:42:35;4.05;;;3.30;;
26620;SDS011;14253;44.840;10.444;2023-06-26T14:45:01;5.28;;;3.40;;
26620;SDS011;14253;44.840;10.444;2023-06-26T14:47:28;5.82;;;3.55;;
26620;SDS011;14253;44.840;10.444;2023-06-26T14:49:54;3.42;;;2.80;;
26620;SDS011;14253;44.840;10.444;2023-06-26T14:52:23;4.22;;;3.42;;
26620;SDS011;14253;44.840;10.444;2023-06-26T14:54:49;5.85;;;3.70;;